sensor_id;sensor_type;location;lat;lon;timestamp;P1;durP1;ratioP1;P2;durP2;ratioP2
57575;SDS011;43412;-33.800;150.804;2022-09-13T00:02:22;4.85;;;0.65;;
57575;SDS011;43412;-33.800;150.804;2022-09-13T00:04:50;1.45;;;0.60;;
57575;SDS011;43412;-33.800;150.804;2022-09-13T00:07:17;1.45;;;0.60;;
57575;SDS011;43412;-33.800;150.804;2022-09-13T00:09:44;2.38;;;0.45;;
57575;SDS011;43412;-33.800;150.804;2022-09-13T00:12:12;2.20;;;0.95;;
57575;SDS011;43412;-33.800;150.804;2022-09-13T00:14:40;2.42;;;0.40;;
57575;SDS011;43412;-33.800;150.804;2022-09-13T00:17:07;1.38;;;0.40;;
57575;SDS011;43412;-33.800;150.804;2022-09-13T00:19:34;3.90;;;0.57;;
57575;SDS011;43412;-33.800;150.804;2022-09-13T00:22:02;1.70;;;0.30;;
57575;SDS011;43412;-33.800;150.804;2022-09-13T00:24:31;1.88;;;0.45;;
57575;SDS011;43412;-33.800;150.804;2022-09-13T00:26:59;3.08;;;1.00;;
57575;SDS011;43412;-33.800;150.804;2022-09-13T00:29:26;1.00;;;0.52;;
57575;SDS011;43412;-33.800;150.804;2022-09-13T00:31:53;1.60;;;0.70;;
57575;SDS011;43412;-33.800;150.804;2022-09-13T00:34:21;1.35;;;0.52;;
57575;SDS011;43412;-33.800;150.804;2022-09-13T00:36:48;1.83;;;0.40;;
57575;SDS011;43412;-33.800;150.804;2022-09-13T00:39:16;0.90;;;0.50;;
57575;SDS011;43412;-33.800;150.804;2022-09-13T00:41:43;2.08;;;0.77;;
57575;SDS011;43412;-33.800;150.804;2022-09-13T00:47:16;1.08;;;0.40;;
57575;SDS011;43412;-33.800;150.804;2022-09-13T00:49:48;2.17;;;0.50;;
57575;SDS011;43412;-33.800;150.804;2022-09-13T00:52:21;1.60;;;0.40;;
57575;SDS011;43412;-33.800;150.804;2022-09-13T00:54:56;3.13;;;1.10;;
57575;SDS011;43412;-33.800;150.804;2022-09-13T00:57:28;1.40;;;0.35;;
57575;SDS011;43412;-33.800;150.804;2022-09-13T01:00:08;0.73;;;0.30;;
57575;SDS011;43412;-33.800;150.804;2022-09-13T01:02:45;0.30;;;0.20;;
57575;SDS011;43412;-33.800;150.804;2022-09-13T01:05:20;1.30;;;0.40;;
57575;SDS011;43412;-33.800;150.804;2022-09-13T01:07:50;0.95;;;0.45;;
57575;SDS011;43412;-33.800;150.804;2022-09-13T01:10:18;2.70;;;0.47;;
57575;SDS011;43412;-33.800;150.804;2022-09-13T01:15:35;2.50;;;0.60;;
57575;SDS011;43412;-33.800;150.804;2022-09-13T01:18:03;1.23;;;0.80;;
57575;SDS011;43412;-33.800;150.804;2022-09-13T01:20:38;2.33;;;0.63;;
57575;SDS011;43412;-33.800;150.804;2022-09-13T01:23:41;1.02;;;0.60;;
57575;SDS011;43412;-33.800;150.804;2022-09-13T01:26:33;2.25;;;0.57;;
57575;SDS011;43412;-33.800;150.804;2022-09-13T01:35:08;3.72;;;0.45;;
57575;SDS011;43412;-33.800;150.804;2022-09-13T01:38:22;3.10;;;0.60;;
57575;SDS011;43412;-33.800;150.804;2022-09-13T01:41:13;2.42;;;0.70;;
57575;SDS011;43412;-33.800;150.804;2022-09-13T01:44:05;1.33;;;0.50;;
57575;SDS011;43412;-33.800;150.804;2022-09-13T01:46:58;2.10;;;0.70;;
57575;SDS011;43412;-33.800;150.804;2022-09-13T01:49:35;1.15;;;0.40;;
57575;SDS011;43412;-33.800;150.804;2022-09-13T01:57:53;5.40;;;0.40;;
57575;SDS011;43412;-33.800;150.804;2022-09-13T02:00:23;2.88;;;0.90;;
57575;SDS011;43412;-33.800;150.804;2022-09-13T02:03:05;6.63;;;0.90;;
57575;SDS011;43412;-33.800;150.804;2022-09-13T02:05:41;1.35;;;0.57;;
57575;SDS011;43412;-33.800;150.804;2022-09-13T02:13:56;1.75;;;0.40;;
57575;SDS011;43412;-33.800;150.804;2022-09-13T02:16:37;1.90;;;0.90;;
57575;SDS011;43412;-33.800;150.804;2022-09-13T02:19:10;5.40;;;1.08;;
57575;SDS011;43412;-33.800;150.804;2022-09-13T02:21:46;2.03;;;0.60;;
57575;SDS011;43412;-33.800;150.804;2022-09-13T02:24:29;3.35;;;0.60;;
57575;SDS011;43412;-33.800;150.804;2022-09-13T02:27:05;2.75;;;1.25;;
57575;SDS011;43412;-33.800;150.804;2022-09-13T02:29:43;5.40;;;1.00;;
57575;SDS011;43412;-33.800;150.804;2022-09-13T02:32:17;3.42;;;1.15;;
57575;SDS011;43412;-33.800;150.804;2022-09-13T02:34:54;1.67;;;0.50;;
57575;SDS011;43412;-33.800;150.804;2022-09-13T02:37:35;1.67;;;0.68;;
57575;SDS011;43412;-33.800;150.804;2022-09-13T02:40:06;3.15;;;1.08;;
57575;SDS011;43412;-33.800;150.804;2022-09-13T02:42:41;2.83;;;0.70;;
57575;SDS011;43412;-33.800;150.804;2022-09-13T02:45:23;0.82;;;0.40;;
57575;SDS011;43412;-33.800;150.804;2022-09-13T02:48:04;1.10;;;0.50;;
57575;SDS011;43412;-33.800;150.804;2022-09-13T02:59:15;3.20;;;0.98;;
57575;SDS011;43412;-33.800;150.804;2022-09-13T03:01:58;2.97;;;1.05;;
57575;SDS011;43412;-33.800;150.804;2022-09-13T03:04:32;3.67;;;1.02;;
57575;SDS011;43412;-33.800;150.804;2022-09-13T03:07:01;1.00;;;0.47;;
57575;SDS011;43412;-33.800;150.804;2022-09-13T03:09:32;1.52;;;0.80;;
57575;SDS011;43412;-33.800;150.804;2022-09-13T03:20:40;1.42;;;0.40;;
57575;SDS011;43412;-33.800;150.804;2022-09-13T03:31:43;3.00;;;0.60;;
57575;SDS011;43412;-33.800;150.804;2022-09-13T03:37:17;1.65;;;0.55;;
57575;SDS011;43412;-33.800;150.804;2022-09-13T03:45:43;0.88;;;0.40;;
57575;SDS011;43412;-33.800;150.804;2022-09-13T03:48:16;3.42;;;0.40;;
57575;SDS011;43412;-33.800;150.804;2022-09-13T03:50:45;3.67;;;0.60;;
57575;SDS011;43412;-33.800;150.804;2022-09-13T03:53:17;3.42;;;0.57;;
57575;SDS011;43412;-33.800;150.804;2022-09-13T03:55:48;1.52;;;0.40;;
57575;SDS011;43412;-33.800;150.804;2022-09-13T03:58:17;0.75;;;0.40;;
57575;SDS011;43412;-33.800;150.804;2022-09-13T04:00:46;0.75;;;0.40;;
57575;SDS011;43412;-33.800;150.804;2022-09-13T04:03:13;3.90;;;0.43;;
57575;SDS011;43412;-33.800;150.804;2022-09-13T04:05:41;0.90;;;0.63;;
57575;SDS011;43412;-33.800;150.804;2022-09-13T04:08:08;1.45;;;0.40;;
57575;SDS011;43412;-33.800;150.804;2022-09-13T04:10:36;6.15;;;1.30;;
57575;SDS011;43412;-33.800;150.804;2022-09-13T04:13:04;1.42;;;0.40;;
57575;SDS011;43412;-33.800;150.804;2022-09-13T04:15:31;1.65;;;0.35;;
57575;SDS011;43412;-33.800;150.804;2022-09-13T04:17:59;6.88;;;0.75;;
57575;SDS011;43412;-33.800;150.804;2022-09-13T04:20:26;3.47;;;0.57;;
57575;SDS011;43412;-33.800;150.804;2022-09-13T04:22:54;1.65;;;0.60;;
57575;SDS011;43412;-33.800;150.804;2022-09-13T04:25:25;1.70;;;0.70;;
57575;SDS011;43412;-33.800;150.804;2022-09-13T04:27:53;0.82;;;0.30;;
57575;SDS011;43412;-33.800;150.804;2022-09-13T04:30:20;2.47;;;0.63;;
57575;SDS011;43412;-33.800;150.804;2022-09-13T04:32:48;3.05;;;0.52;;
57575;SDS011;43412;-33.800;150.804;2022-09-13T04:35:16;2.45;;;0.60;;
57575;SDS011;43412;-33.800;150.804;2022-09-13T04:37:44;1.40;;;0.40;;
57575;SDS011;43412;-33.800;150.804;2022-09-13T04:40:12;1.45;;;0.52;;
57575;SDS011;43412;-33.800;150.804;2022-09-13T04:42:39;2.60;;;0.47;;
57575;SDS011;43412;-33.800;150.804;2022-09-13T04:45:08;2.83;;;1.23;;
57575;SDS011;43412;-33.800;150.804;2022-09-13T04:47:36;1.67;;;0.82;;
57575;SDS011;43412;-33.800;150.804;2022-09-13T04:50:03;1.13;;;0.50;;
57575;SDS011;43412;-33.800;150.804;2022-09-13T04:52:32;2.25;;;0.70;;
57575;SDS011;43412;-33.800;150.804;2022-09-13T04:54:59;3.05;;;0.50;;
57575;SDS011;43412;-33.800;150.804;2022-09-13T04:57:27;2.83;;;0.68;;
57575;SDS011;43412;-33.800;150.804;2022-09-13T04:59:55;2.95;;;0.60;;
57575;SDS011;43412;-33.800;150.804;2022-09-13T05:02:22;1.38;;;0.47;;
57575;SDS011;43412;-33.800;150.804;2022-09-13T05:04:50;1.88;;;0.60;;
57575;SDS011;43412;-33.800;150.804;2022-09-13T05:07:17;2.80;;;0.80;;
57575;SDS011;43412;-33.800;150.804;2022-09-13T05:09:44;0.93;;;0.30;;
57575;SDS011;43412;-33.800;150.804;2022-09-13T05:12:12;0.90;;;0.45;;
57575;SDS011;43412;-33.800;150.804;2022-09-13T05:14:39;1.63;;;0.30;;
57575;SDS011;43412;-33.800;150.804;2022-09-13T05:17:07;3.08;;;0.57;;
57575;SDS011;43412;-33.800;150.804;2022-09-13T05:19:34;1.52;;;0.35;;
57575;SDS011;43412;-33.800;150.804;2022-09-13T05:22:01;1.83;;;0.60;;
57575;SDS011;43412;-33.800;150.804;2022-09-13T05:24:30;3.28;;;0.60;;
57575;SDS011;43412;-33.800;150.804;2022-09-13T05:26:57;0.68;;;0.35;;
57575;SDS011;43412;-33.800;150.804;2022-09-13T05:29:25;3.60;;;0.40;;
57575;SDS011;43412;-33.800;150.804;2022-09-13T05:31:52;1.00;;;0.30;;
57575;SDS011;43412;-33.800;150.804;2022-09-13T05:34:19;1.42;;;0.60;;
57575;SDS011;43412;-33.800;150.804;2022-09-13T05:36:47;2.92;;;1.00;;
57575;SDS011;43412;-33.800;150.804;2022-09-13T05:39:15;1.85;;;0.22;;
57575;SDS011;43412;-33.800;150.804;2022-09-13T05:41:43;2.08;;;0.45;;
57575;SDS011;43412;-33.800;150.804;2022-09-13T05:44:10;0.90;;;0.30;;
57575;SDS011;43412;-33.800;150.804;2022-09-13T05:46:38;1.50;;;0.73;;
57575;SDS011;43412;-33.800;150.804;2022-09-13T05:49:06;1.95;;;0.40;;
57575;SDS011;43412;-33.800;150.804;2022-09-13T05:51:33;1.08;;;0.40;;
57575;SDS011;43412;-33.800;150.804;2022-09-13T05:54:01;1.85;;;0.30;;
57575;SDS011;43412;-33.800;150.804;2022-09-13T05:56:28;0.77;;;0.57;;
57575;SDS011;43412;-33.800;150.804;2022-09-13T05:58:56;2.47;;;0.38;;
57575;SDS011;43412;-33.800;150.804;2022-09-13T06:01:25;0.82;;;0.47;;
57575;SDS011;43412;-33.800;150.804;2022-09-13T06:03:55;1.98;;;0.70;;
57575;SDS011;43412;-33.800;150.804;2022-09-13T06:06:24;2.17;;;0.40;;
57575;SDS011;43412;-33.800;150.804;2022-09-13T06:08:52;1.38;;;0.30;;
57575;SDS011;43412;-33.800;150.804;2022-09-13T06:11:21;0.68;;;0.47;;
57575;SDS011;43412;-33.800;150.804;2022-09-13T06:13:50;2.85;;;0.70;;
57575;SDS011;43412;-33.800;150.804;2022-09-13T06:16:17;2.30;;;0.47;;
57575;SDS011;43412;-33.800;150.804;2022-09-13T06:18:45;1.90;;;0.70;;
57575;SDS011;43412;-33.800;150.804;2022-09-13T06:21:13;2.60;;;0.77;;
57575;SDS011;43412;-33.800;150.804;2022-09-13T06:23:46;2.80;;;0.50;;
57575;SDS011;43412;-33.800;150.804;2022-09-13T06:26:16;4.93;;;0.63;;
57575;SDS011;43412;-33.800;150.804;2022-09-13T06:28:48;2.08;;;0.63;;
57575;SDS011;43412;-33.800;150.804;2022-09-13T06:31:18;2.75;;;0.75;;
57575;SDS011;43412;-33.800;150.804;2022-09-13T06:33:46;2.95;;;0.77;;
57575;SDS011;43412;-33.800;150.804;2022-09-13T06:36:15;3.15;;;1.15;;
57575;SDS011;43412;-33.800;150.804;2022-09-13T06:38:44;4.22;;;0.90;;
57575;SDS011;43412;-33.800;150.804;2022-09-13T06:41:14;0.60;;;0.28;;
57575;SDS011;43412;-33.800;150.804;2022-09-13T06:43:43;1.77;;;0.65;;
57575;SDS011;43412;-33.800;150.804;2022-09-13T06:46:13;1.73;;;0.57;;
57575;SDS011;43412;-33.800;150.804;2022-09-13T06:48:42;1.67;;;0.85;;
57575;SDS011;43412;-33.800;150.804;2022-09-13T06:51:15;1.05;;;0.43;;
57575;SDS011;43412;-33.800;150.804;2022-09-13T06:53:44;0.73;;;0.45;;
57575;SDS011;43412;-33.800;150.804;2022-09-13T06:56:14;3.45;;;0.63;;
57575;SDS011;43412;-33.800;150.804;2022-09-13T06:58:43;3.65;;;0.60;;
57575;SDS011;43412;-33.800;150.804;2022-09-13T07:03:45;1.67;;;0.52;;
57575;SDS011;43412;-33.800;150.804;2022-09-13T07:06:17;2.53;;;0.50;;
57575;SDS011;43412;-33.800;150.804;2022-09-13T07:08:47;4.18;;;0.70;;
57575;SDS011;43412;-33.800;150.804;2022-09-13T07:11:18;1.08;;;0.40;;
57575;SDS011;43412;-33.800;150.804;2022-09-13T07:13:51;1.98;;;1.05;;
57575;SDS011;43412;-33.800;150.804;2022-09-13T07:16:21;3.00;;;0.82;;
57575;SDS011;43412;-33.800;150.804;2022-09-13T07:18:54;2.58;;;1.17;;
57575;SDS011;43412;-33.800;150.804;2022-09-13T07:21:23;3.50;;;0.70;;
57575;SDS011;43412;-33.800;150.804;2022-09-13T07:23:52;2.95;;;0.50;;
57575;SDS011;43412;-33.800;150.804;2022-09-13T07:26:21;1.75;;;0.50;;
57575;SDS011;43412;-33.800;150.804;2022-09-13T07:28:52;4.68;;;0.80;;
57575;SDS011;43412;-33.800;150.804;2022-09-13T07:31:25;4.30;;;0.68;;
57575;SDS011;43412;-33.800;150.804;2022-09-13T07:33:59;7.38;;;1.67;;
57575;SDS011;43412;-33.800;150.804;2022-09-13T07:36:31;2.67;;;0.57;;
57575;SDS011;43412;-33.800;150.804;2022-09-13T07:39:00;2.83;;;1.05;;
57575;SDS011;43412;-33.800;150.804;2022-09-13T07:41:28;3.30;;;0.50;;
57575;SDS011;43412;-33.800;150.804;2022-09-13T07:43:57;2.45;;;0.93;;
57575;SDS011;43412;-33.800;150.804;2022-09-13T07:46:27;3.95;;;0.95;;
57575;SDS011;43412;-33.800;150.804;2022-09-13T07:48:59;1.95;;;0.68;;
57575;SDS011;43412;-33.800;150.804;2022-09-13T07:51:31;1.73;;;0.77;;
57575;SDS011;43412;-33.800;150.804;2022-09-13T07:54:01;1.90;;;0.40;;
57575;SDS011;43412;-33.800;150.804;2022-09-13T07:56:31;3.08;;;0.70;;
57575;SDS011;43412;-33.800;150.804;2022-09-13T07:59:01;3.22;;;0.60;;
57575;SDS011;43412;-33.800;150.804;2022-09-13T08:01:37;2.63;;;1.10;;
57575;SDS011;43412;-33.800;150.804;2022-09-13T08:06:37;4.82;;;0.80;;
57575;SDS011;43412;-33.800;150.804;2022-09-13T08:09:06;1.58;;;0.90;;
57575;SDS011;43412;-33.800;150.804;2022-09-13T08:11:35;4.78;;;0.70;;
57575;SDS011;43412;-33.800;150.804;2022-09-13T08:14:04;3.00;;;1.02;;
57575;SDS011;43412;-33.800;150.804;2022-09-13T08:16:33;7.05;;;1.13;;
57575;SDS011;43412;-33.800;150.804;2022-09-13T08:19:01;1.27;;;0.73;;
57575;SDS011;43412;-33.800;150.804;2022-09-13T08:21:33;3.85;;;0.93;;
57575;SDS011;43412;-33.800;150.804;2022-09-13T08:24:02;6.18;;;1.23;;
57575;SDS011;43412;-33.800;150.804;2022-09-13T08:26:31;3.05;;;0.80;;
57575;SDS011;43412;-33.800;150.804;2022-09-13T08:29:02;5.22;;;1.83;;
57575;SDS011;43412;-33.800;150.804;2022-09-13T08:31:30;10.13;;;4.95;;
57575;SDS011;43412;-33.800;150.804;2022-09-13T08:33:59;5.78;;;3.67;;
57575;SDS011;43412;-33.800;150.804;2022-09-13T08:36:26;11.40;;;5.07;;
57575;SDS011;43412;-33.800;150.804;2022-09-13T08:38:58;10.52;;;4.10;;
57575;SDS011;43412;-33.800;150.804;2022-09-13T08:44:08;2.92;;;1.38;;
57575;SDS011;43412;-33.800;150.804;2022-09-13T08:46:51;4.80;;;1.23;;
57575;SDS011;43412;-33.800;150.804;2022-09-13T08:49:29;4.03;;;1.50;;
57575;SDS011;43412;-33.800;150.804;2022-09-13T08:54:45;2.85;;;1.20;;
57575;SDS011;43412;-33.800;150.804;2022-09-13T09:00:11;4.20;;;1.20;;
57575;SDS011;43412;-33.800;150.804;2022-09-13T09:03:04;3.53;;;0.90;;
57575;SDS011;43412;-33.800;150.804;2022-09-13T09:05:44;3.20;;;0.63;;
57575;SDS011;43412;-33.800;150.804;2022-09-13T09:08:30;3.63;;;0.50;;
57575;SDS011;43412;-33.800;150.804;2022-09-13T09:14:26;1.95;;;0.50;;
57575;SDS011;43412;-33.800;150.804;2022-09-13T09:17:10;3.03;;;1.13;;
57575;SDS011;43412;-33.800;150.804;2022-09-13T09:20:15;1.17;;;0.70;;
57575;SDS011;43412;-33.800;150.804;2022-09-13T09:22:44;3.38;;;0.85;;
57575;SDS011;43412;-33.800;150.804;2022-09-13T09:25:14;2.13;;;0.68;;
57575;SDS011;43412;-33.800;150.804;2022-09-13T09:27:41;1.48;;;0.50;;
57575;SDS011;43412;-33.800;150.804;2022-09-13T09:30:11;3.90;;;0.35;;
57575;SDS011;43412;-33.800;150.804;2022-09-13T09:32:44;3.15;;;0.70;;
57575;SDS011;43412;-33.800;150.804;2022-09-13T09:40:58;4.78;;;1.15;;
57575;SDS011;43412;-33.800;150.804;2022-09-13T09:43:34;1.95;;;1.00;;
57575;SDS011;43412;-33.800;150.804;2022-09-13T09:46:09;3.92;;;1.17;;
57575;SDS011;43412;-33.800;150.804;2022-09-13T09:48:47;2.88;;;1.17;;
57575;SDS011;43412;-33.800;150.804;2022-09-13T09:51:21;3.15;;;2.25;;
57575;SDS011;43412;-33.800;150.804;2022-09-13T09:53:52;1.90;;;0.90;;
57575;SDS011;43412;-33.800;150.804;2022-09-13T09:56:30;1.80;;;0.82;;
57575;SDS011;43412;-33.800;150.804;2022-09-13T09:58:59;2.63;;;1.25;;
57575;SDS011;43412;-33.800;150.804;2022-09-13T10:01:31;7.20;;;1.02;;
57575;SDS011;43412;-33.800;150.804;2022-09-13T10:06:46;1.90;;;1.20;;
57575;SDS011;43412;-33.800;150.804;2022-09-13T10:09:17;1.10;;;0.68;;
57575;SDS011;43412;-33.800;150.804;2022-09-13T10:11:50;1.27;;;0.68;;
57575;SDS011;43412;-33.800;150.804;2022-09-13T10:19:53;2.17;;;0.80;;
57575;SDS011;43412;-33.800;150.804;2022-09-13T10:22:29;1.73;;;0.88;;
57575;SDS011;43412;-33.800;150.804;2022-09-13T10:27:48;4.07;;;0.50;;
57575;SDS011;43412;-33.800;150.804;2022-09-13T10:30:26;4.40;;;1.08;;
57575;SDS011;43412;-33.800;150.804;2022-09-13T10:32:59;2.47;;;0.80;;
57575;SDS011;43412;-33.800;150.804;2022-09-13T10:35:27;2.42;;;0.52;;
57575;SDS011;43412;-33.800;150.804;2022-09-13T10:37:55;6.60;;;1.60;;
57575;SDS011;43412;-33.800;150.804;2022-09-13T10:40:27;5.72;;;0.98;;
57575;SDS011;43412;-33.800;150.804;2022-09-13T10:43:03;2.58;;;0.50;;
57575;SDS011;43412;-33.800;150.804;2022-09-13T10:45:40;1.25;;;0.60;;
57575;SDS011;43412;-33.800;150.804;2022-09-13T10:48:12;5.80;;;0.95;;
57575;SDS011;43412;-33.800;150.804;2022-09-13T10:50:58;2.40;;;0.55;;
57575;SDS011;43412;-33.800;150.804;2022-09-13T10:53:45;3.08;;;0.55;;
57575;SDS011;43412;-33.800;150.804;2022-09-13T10:56:24;2.80;;;0.60;;
57575;SDS011;43412;-33.800;150.804;2022-09-13T11:02:06;3.47;;;0.50;;
57575;SDS011;43412;-33.800;150.804;2022-09-13T11:13:11;1.33;;;0.60;;
57575;SDS011;43412;-33.800;150.804;2022-09-13T11:35:03;1.33;;;0.77;;
57575;SDS011;43412;-33.800;150.804;2022-09-13T11:57:12;2.15;;;0.80;;
57575;SDS011;43412;-33.800;150.804;2022-09-13T12:02:30;3.97;;;0.68;;
57575;SDS011;43412;-33.800;150.804;2022-09-13T12:05:19;5.93;;;1.33;;
57575;SDS011;43412;-33.800;150.804;2022-09-13T12:08:35;5.50;;;2.72;;
57575;SDS011;43412;-33.800;150.804;2022-09-13T12:13:21;8.93;;;5.60;;
57575;SDS011;43412;-33.800;150.804;2022-09-13T12:15:59;8.13;;;5.97;;
57575;SDS011;43412;-33.800;150.804;2022-09-13T12:18:36;6.43;;;4.28;;
57575;SDS011;43412;-33.800;150.804;2022-09-13T12:23:44;6.90;;;3.83;;
57575;SDS011;43412;-33.800;150.804;2022-09-13T12:26:19;5.07;;;2.97;;
57575;SDS011;43412;-33.800;150.804;2022-09-13T12:28:58;7.72;;;2.72;;
57575;SDS011;43412;-33.800;150.804;2022-09-13T12:31:33;4.40;;;2.00;;
57575;SDS011;43412;-33.800;150.804;2022-09-13T12:34:02;3.35;;;1.48;;
57575;SDS011;43412;-33.800;150.804;2022-09-13T12:36:50;6.93;;;3.33;;
57575;SDS011;43412;-33.800;150.804;2022-09-13T13:01:49;3.00;;;0.50;;
57575;SDS011;43412;-33.800;150.804;2022-09-13T13:04:24;1.35;;;0.60;;
57575;SDS011;43412;-33.800;150.804;2022-09-13T13:06:59;3.30;;;1.00;;
57575;SDS011;43412;-33.800;150.804;2022-09-13T13:09:40;5.32;;;1.15;;
57575;SDS011;43412;-33.800;150.804;2022-09-13T13:12:35;1.80;;;0.50;;
57575;SDS011;43412;-33.800;150.804;2022-09-13T13:17:53;3.25;;;0.80;;
57575;SDS011;43412;-33.800;150.804;2022-09-13T13:23:23;2.92;;;0.75;;
57575;SDS011;43412;-33.800;150.804;2022-09-13T13:36:52;1.63;;;0.40;;
57575;SDS011;43412;-33.800;150.804;2022-09-13T14:05:17;2.35;;;0.50;;
57575;SDS011;43412;-33.800;150.804;2022-09-13T14:16:30;1.42;;;0.68;;
57575;SDS011;43412;-33.800;150.804;2022-09-13T14:21:40;1.73;;;0.47;;
57575;SDS011;43412;-33.800;150.804;2022-09-13T14:24:14;1.52;;;0.30;;
57575;SDS011;43412;-33.800;150.804;2022-09-13T14:26:45;7.57;;;1.45;;
57575;SDS011;43412;-33.800;150.804;2022-09-13T14:29:15;6.47;;;0.63;;
57575;SDS011;43412;-33.800;150.804;2022-09-13T14:31:53;0.63;;;0.55;;
57575;SDS011;43412;-33.800;150.804;2022-09-13T14:34:35;1.27;;;0.50;;
57575;SDS011;43412;-33.800;150.804;2022-09-13T14:37:05;4.13;;;0.82;;
57575;SDS011;43412;-33.800;150.804;2022-09-13T14:39:56;1.42;;;0.45;;
57575;SDS011;43412;-33.800;150.804;2022-09-13T14:42:37;1.98;;;0.55;;
57575;SDS011;43412;-33.800;150.804;2022-09-13T14:45:11;1.23;;;0.55;;
57575;SDS011;43412;-33.800;150.804;2022-09-13T14:48:01;3.30;;;0.52;;
57575;SDS011;43412;-33.800;150.804;2022-09-13T14:50:31;4.03;;;0.60;;
57575;SDS011;43412;-33.800;150.804;2022-09-13T14:53:48;3.83;;;0.57;;
57575;SDS011;43412;-33.800;150.804;2022-09-13T14:56:07;1.85;;;0.40;;
57575;SDS011;43412;-33.800;150.804;2022-09-13T14:58:43;1.50;;;0.40;;
57575;SDS011;43412;-33.800;150.804;2022-09-13T15:01:19;1.10;;;0.40;;
57575;SDS011;43412;-33.800;150.804;2022-09-13T15:03:54;1.58;;;0.63;;
57575;SDS011;43412;-33.800;150.804;2022-09-13T15:06:25;2.33;;;1.45;;
57575;SDS011;43412;-33.800;150.804;2022-09-13T15:11:40;1.98;;;0.60;;
57575;SDS011;43412;-33.800;150.804;2022-09-13T15:16:49;6.18;;;0.65;;
57575;SDS011;43412;-33.800;150.804;2022-09-13T15:21:49;3.72;;;0.70;;
57575;SDS011;43412;-33.800;150.804;2022-09-13T15:24:21;1.13;;;0.50;;
57575;SDS011;43412;-33.800;150.804;2022-09-13T15:27:03;1.20;;;0.50;;
57575;SDS011;43412;-33.800;150.804;2022-09-13T15:29:32;2.17;;;0.60;;
57575;SDS011;43412;-33.800;150.804;2022-09-13T15:32:02;1.10;;;0.60;;
57575;SDS011;43412;-33.800;150.804;2022-09-13T15:34:31;4.18;;;0.63;;
57575;SDS011;43412;-33.800;150.804;2022-09-13T15:42:33;3.45;;;0.65;;
57575;SDS011;43412;-33.800;150.804;2022-09-13T15:45:00;1.40;;;0.50;;
57575;SDS011;43412;-33.800;150.804;2022-09-13T15:47:27;0.52;;;0.32;;
57575;SDS011;43412;-33.800;150.804;2022-09-13T15:49:55;3.22;;;0.80;;
57575;SDS011;43412;-33.800;150.804;2022-09-13T15:52:23;1.83;;;0.68;;
57575;SDS011;43412;-33.800;150.804;2022-09-13T15:54:50;3.20;;;1.48;;
57575;SDS011;43412;-33.800;150.804;2022-09-13T15:57:24;2.95;;;0.90;;
57575;SDS011;43412;-33.800;150.804;2022-09-13T15:59:54;4.60;;;0.50;;
57575;SDS011;43412;-33.800;150.804;2022-09-13T16:02:24;1.95;;;0.85;;
57575;SDS011;43412;-33.800;150.804;2022-09-13T16:04:53;1.67;;;0.65;;
57575;SDS011;43412;-33.800;150.804;2022-09-13T16:07:21;3.47;;;0.50;;
57575;SDS011;43412;-33.800;150.804;2022-09-13T16:09:50;0.85;;;0.40;;
57575;SDS011;43412;-33.800;150.804;2022-09-13T16:12:18;3.70;;;0.88;;
57575;SDS011;43412;-33.800;150.804;2022-09-13T16:14:48;2.47;;;0.45;;
57575;SDS011;43412;-33.800;150.804;2022-09-13T16:17:20;1.85;;;0.47;;
57575;SDS011;43412;-33.800;150.804;2022-09-13T16:19:50;3.10;;;0.73;;
57575;SDS011;43412;-33.800;150.804;2022-09-13T16:22:18;4.70;;;0.55;;
57575;SDS011;43412;-33.800;150.804;2022-09-13T16:24:46;3.05;;;0.50;;
57575;SDS011;43412;-33.800;150.804;2022-09-13T16:27:15;2.22;;;0.40;;
57575;SDS011;43412;-33.800;150.804;2022-09-13T16:29:43;4.07;;;0.60;;
57575;SDS011;43412;-33.800;150.804;2022-09-13T16:32:11;5.32;;;1.08;;
57575;SDS011;43412;-33.800;150.804;2022-09-13T16:34:38;2.05;;;0.50;;
57575;SDS011;43412;-33.800;150.804;2022-09-13T16:37:06;1.48;;;0.90;;
57575;SDS011;43412;-33.800;150.804;2022-09-13T16:39:33;0.85;;;0.30;;
57575;SDS011;43412;-33.800;150.804;2022-09-13T16:42:01;1.33;;;0.47;;
57575;SDS011;43412;-33.800;150.804;2022-09-13T16:44:29;1.45;;;0.75;;
57575;SDS011;43412;-33.800;150.804;2022-09-13T16:46:57;3.15;;;0.45;;
57575;SDS011;43412;-33.800;150.804;2022-09-13T16:49:25;2.60;;;0.70;;
57575;SDS011;43412;-33.800;150.804;2022-09-13T16:51:52;1.75;;;0.30;;
57575;SDS011;43412;-33.800;150.804;2022-09-13T16:54:27;6.72;;;0.95;;
57575;SDS011;43412;-33.800;150.804;2022-09-13T16:57:00;1.80;;;0.40;;
57575;SDS011;43412;-33.800;150.804;2022-09-13T16:59:29;2.30;;;0.40;;
57575;SDS011;43412;-33.800;150.804;2022-09-13T17:01:57;3.65;;;0.52;;
57575;SDS011;43412;-33.800;150.804;2022-09-13T17:04:24;0.55;;;0.32;;
57575;SDS011;43412;-33.800;150.804;2022-09-13T17:06:51;1.65;;;0.68;;
57575;SDS011;43412;-33.800;150.804;2022-09-13T17:09:19;1.05;;;0.50;;
57575;SDS011;43412;-33.800;150.804;2022-09-13T17:11:48;1.33;;;0.45;;
57575;SDS011;43412;-33.800;150.804;2022-09-13T17:14:15;1.30;;;0.50;;
57575;SDS011;43412;-33.800;150.804;2022-09-13T17:16:45;2.35;;;0.70;;
57575;SDS011;43412;-33.800;150.804;2022-09-13T17:19:16;1.85;;;0.52;;
57575;SDS011;43412;-33.800;150.804;2022-09-13T17:21:45;0.65;;;0.43;;
57575;SDS011;43412;-33.800;150.804;2022-09-13T17:24:13;2.30;;;0.88;;
57575;SDS011;43412;-33.800;150.804;2022-09-13T17:26:41;1.08;;;0.82;;
57575;SDS011;43412;-33.800;150.804;2022-09-13T17:29:11;4.82;;;0.45;;
57575;SDS011;43412;-33.800;150.804;2022-09-13T17:31:39;2.10;;;0.82;;
57575;SDS011;43412;-33.800;150.804;2022-09-13T17:34:08;2.95;;;0.60;;
57575;SDS011;43412;-33.800;150.804;2022-09-13T17:36:37;2.58;;;0.50;;
57575;SDS011;43412;-33.800;150.804;2022-09-13T17:39:05;1.80;;;0.73;;
57575;SDS011;43412;-33.800;150.804;2022-09-13T17:41:33;1.48;;;0.52;;
57575;SDS011;43412;-33.800;150.804;2022-09-13T17:44:01;0.70;;;0.40;;
57575;SDS011;43412;-33.800;150.804;2022-09-13T17:46:29;1.08;;;0.45;;
57575;SDS011;43412;-33.800;150.804;2022-09-13T17:48:57;3.95;;;0.60;;
57575;SDS011;43412;-33.800;150.804;2022-09-13T17:51:26;3.20;;;0.63;;
57575;SDS011;43412;-33.800;150.804;2022-09-13T17:53:55;4.43;;;0.50;;
57575;SDS011;43412;-33.800;150.804;2022-09-13T17:56:26;0.70;;;0.35;;
57575;SDS011;43412;-33.800;150.804;2022-09-13T17:58:59;2.35;;;0.90;;
57575;SDS011;43412;-33.800;150.804;2022-09-13T18:01:48;0.52;;;0.50;;
57575;SDS011;43412;-33.800;150.804;2022-09-13T18:04:18;1.58;;;0.77;;
57575;SDS011;43412;-33.800;150.804;2022-09-13T18:06:48;0.80;;;0.47;;
57575;SDS011;43412;-33.800;150.804;2022-09-13T18:09:17;0.93;;;0.70;;
57575;SDS011;43412;-33.800;150.804;2022-09-13T18:11:44;1.75;;;0.40;;
57575;SDS011;43412;-33.800;150.804;2022-09-13T18:14:13;4.32;;;0.70;;
57575;SDS011;43412;-33.800;150.804;2022-09-13T18:16:41;2.47;;;0.45;;
57575;SDS011;43412;-33.800;150.804;2022-09-13T18:19:09;2.28;;;0.52;;
57575;SDS011;43412;-33.800;150.804;2022-09-13T18:21:37;4.72;;;0.80;;
57575;SDS011;43412;-33.800;150.804;2022-09-13T18:24:05;3.78;;;0.57;;
57575;SDS011;43412;-33.800;150.804;2022-09-13T18:26:33;2.08;;;0.40;;
57575;SDS011;43412;-33.800;150.804;2022-09-13T18:29:02;1.27;;;0.80;;
57575;SDS011;43412;-33.800;150.804;2022-09-13T18:31:32;2.85;;;0.93;;
57575;SDS011;43412;-33.800;150.804;2022-09-13T18:34:04;4.38;;;0.70;;
57575;SDS011;43412;-33.800;150.804;2022-09-13T18:36:34;1.45;;;0.90;;